Time;durP1;ratioP1;P1;durP2;ratioP2;P2;SDS_P1;SDS_P2;PMS_P1;PMS_P2;Temp;Humidity;BMP_temperature;BMP_pressure;BME280_temperature;BME280_humidity;BME280_pressure;Samples;Min_cycle;Max_cycle;Signal;HPM_P1;HPM_P2
2022/09/29 00:00:52;;;;;;;8.20;5.95;;;;;;;6.54;100.00;99726.34;4992437;28;20041;-76
2022/09/29 00:03:19;;;;;;;8.77;5.45;;;;;;;6.52;100.00;99725.69;5007560;28;20040;-75
2022/09/29 00:05:53;;;;;;;9.20;5.50;;;;;;;6.51;100.00;99725.84;5000237;28;20033;-75
2022/09/29 00:08:20;;;;;;;9.05;5.90;;;;;;;6.51;100.00;99726.63;5001869;28;20030;-75
2022/09/29 00:10:46;;;;;;;6.78;5.05;;;;;;;6.48;100.00;99724.38;4999817;28;20044;-74
2022/09/29 00:13:13;;;;;;;7.13;5.03;;;;;;;6.49;100.00;99725.19;4972697;28;20033;-75
2022/09/29 00:15:39;;;;;;;9.18;5.18;;;;;;;6.44;100.00;99735.94;5002520;28;20387;-75
2022/09/29 00:18:04;;;;;;;8.52;5.03;;;;;;;6.38;100.00;99733.97;5002934;28;20042;-75
2022/09/29 00:20:30;;;;;;;7.43;4.75;;;;;;;6.25;100.00;99729.25;5001587;28;20041;-75
2022/09/29 00:22:56;;;;;;;6.13;4.03;;;;;;;6.14;100.00;99730.34;4983336;28;20045;-75
2022/09/29 00:25:21;;;;;;;5.75;3.92;;;;;;;6.12;100.00;99728.88;4987495;28;20034;-75
2022/09/29 00:27:47;;;;;;;9.15;4.07;;;;;;;6.10;100.00;99733.38;5004525;28;20038;-74
2022/09/29 00:30:13;;;;;;;6.50;4.28;;;;;;;6.06;100.00;99734.63;4981996;28;20065;-75
2022/09/29 00:32:38;;;;;;;6.82;4.75;;;;;;;6.02;100.00;99727.22;4972796;28;20034;-75
2022/09/29 00:35:06;;;;;;;5.93;4.47;;;;;;;5.99;100.00;99731.84;4968386;28;20034;-75
2022/09/29 00:37:31;;;;;;;5.88;4.90;;;;;;;5.98;100.00;99738.78;5007091;28;20133;-75
2022/09/29 00:39:57;;;;;;;6.72;4.88;;;;;;;5.96;100.00;99737.31;5006693;28;20045;-75
2022/09/29 00:42:23;;;;;;;7.32;4.97;;;;;;;5.94;100.00;99734.88;4987870;28;20033;-75
2022/09/29 00:45:03;;;;;;;8.38;5.82;;;;;;;5.93;100.00;99732.44;5007335;28;20870;-75
2022/09/29 00:47:31;;;;;;;7.30;4.97;;;;;;;5.90;100.00;99736.13;5004340;28;20109;-75
2022/09/29 00:50:05;;;;;;;7.10;4.75;;;;;;;5.87;100.00;99739.00;5004516;28;20045;-75
2022/09/29 00:52:37;;;;;;;8.63;5.63;;;;;;;5.83;100.00;99737.69;4987958;28;20042;-75
2022/09/29 00:55:09;;;;;;;8.30;5.22;;;;;;;5.77;100.00;99738.28;5004316;28;20184;-75
2022/09/29 00:57:42;;;;;;;10.57;5.40;;;;;;;5.74;100.00;99736.81;5002866;28;20041;-75
2022/09/29 01:00:12;;;;;;;7.97;5.63;;;;;;;5.73;100.00;99739.56;4988296;28;20048;-75
2022/09/29 01:02:43;;;;;;;8.77;5.47;;;;;;;5.68;100.00;99734.84;5004367;28;20044;-76
2022/09/29 01:05:14;;;;;;;6.47;4.55;;;;;;;5.63;100.00;99732.75;4973660;28;20038;-75
2022/09/29 01:07:40;;;;;;;9.70;5.57;;;;;;;5.59;100.00;99735.75;4988941;28;20046;-75
2022/09/29 01:10:06;;;;;;;8.45;4.60;;;;;;;5.57;100.00;99738.47;5004790;28;20037;-75
2022/09/29 01:12:32;;;;;;;7.35;5.18;;;;;;;5.53;100.00;99744.88;4974344;28;20041;-75
2022/09/29 01:14:59;;;;;;;6.70;4.97;;;;;;;5.52;100.00;99745.00;4965655;28;20041;-75
2022/09/29 01:17:24;;;;;;;6.18;4.80;;;;;;;5.52;100.00;99737.28;4985720;28;20038;-75
2022/09/29 01:20:12;;;;;;;6.68;4.57;;;;;;;5.55;100.00;99742.16;5003779;28;20451;-75
2022/09/29 01:23:17;;;;;;;6.10;4.50;;;;;;;5.55;100.00;99744.72;4979391;28;20049;-75
2022/09/29 01:25:48;;;;;;;7.50;4.68;;;;;;;5.51;100.00;99746.78;4988784;28;20053;-75
2022/09/29 01:28:44;;;;;;;6.95;5.25;;;;;;;5.48;100.00;99744.50;5008904;28;20030;-75
2022/09/29 01:31:15;;;;;;;7.00;4.97;;;;;;;5.48;100.00;99747.06;5004807;28;20767;-75
2022/09/29 01:34:11;;;;;;;7.60;5.65;;;;;;;5.46;100.00;99747.22;4987175;28;20058;-75
2022/09/29 01:36:52;;;;;;;6.82;4.80;;;;;;;5.47;100.00;99743.69;4985259;28;20042;-74
2022/09/29 01:39:28;;;;;;;6.00;4.70;;;;;;;5.44;100.00;99748.31;5002146;28;20068;-75
2022/09/29 01:42:12;;;;;;;8.50;5.05;;;;;;;5.43;100.00;99749.28;4988068;28;20128;-75
2022/09/29 01:44:52;;;;;;;6.13;4.78;;;;;;;5.37;100.00;99748.13;5002972;28;20030;-75
2022/09/29 01:47:26;;;;;;;6.78;5.18;;;;;;;5.33;100.00;99751.94;5005747;28;20109;-75
2022/09/29 01:50:00;;;;;;;8.00;5.15;;;;;;;5.28;100.00;99755.91;4988049;28;20093;-75
2022/09/29 01:52:31;;;;;;;7.43;5.40;;;;;;;5.21;100.00;99756.47;4991065;28;20112;-75
2022/09/29 01:55:04;;;;;;;6.28;4.15;;;;;;;5.17;100.00;99759.50;5008551;28;20042;-75
2022/09/29 01:57:39;;;;;;;5.95;4.55;;;;;;;5.15;100.00;99761.41;5009767;28;20037;-74
2022/09/29 02:00:08;;;;;;;7.70;4.85;;;;;;;5.15;100.00;99757.06;4976331;28;20495;-75
2022/09/29 02:02:58;;;;;;;6.22;4.85;;;;;;;5.17;100.00;99754.34;4970919;28;20045;-75
2022/09/29 02:05:32;;;;;;;6.10;4.70;;;;;;;5.18;100.00;99751.66;5005636;28;20152;-74
2022/09/29 02:08:03;;;;;;;7.55;5.15;;;;;;;5.18;100.00;99756.78;4975518;28;20125;-75
2022/09/29 02:10:33;;;;;;;6.65;4.50;;;;;;;5.17;100.00;99755.16;5008295;28;20036;-75
2022/09/29 02:13:05;;;;;;;7.22;4.53;;;;;;;5.17;100.00;99762.06;5006244;28;20082;-75
2022/09/29 02:15:35;;;;;;;7.78;4.72;;;;;;;5.15;100.00;99759.63;4988682;28;20026;-76
2022/09/29 02:18:12;;;;;;;7.78;4.80;;;;;;;5.14;100.00;99752.91;4988527;28;20061;-76
2022/09/29 02:20:37;;;;;;;7.38;5.47;;;;;;;5.09;100.00;99752.53;5003175;28;20468;-75
2022/09/29 02:23:03;;;;;;;5.88;3.90;;;;;;;5.02;100.00;99760.00;5010446;28;20113;-76
2022/09/29 02:25:33;;;;;;;6.53;4.55;;;;;;;4.96;100.00;99754.63;4990077;28;20080;-76
2022/09/29 02:27:58;;;;;;;7.80;4.97;;;;;;;4.91;100.00;99756.81;5002704;28;20037;-76
2022/09/29 02:30:24;;;;;;;7.25;3.97;;;;;;;4.86;100.00;99758.06;5006238;28;20033;-75
2022/09/29 02:32:49;;;;;;;7.28;4.50;;;;;;;4.83;100.00;99758.34;5004181;28;20044;-76
2022/09/29 02:35:15;;;;;;;6.63;4.53;;;;;;;4.83;100.00;99768.63;5003684;28;20041;-76
2022/09/29 02:37:43;;;;;;;10.05;4.68;;;;;;;4.83;100.00;99765.25;4988250;28;20046;-75
2022/09/29 02:40:24;;;;;;;6.00;4.53;;;;;;;4.82;100.00;99764.44;4990698;28;20068;-76
2022/09/29 02:43:17;;;;;;;5.47;4.18;;;;;;;4.83;100.00;99767.81;4989158;28;20033;-76
2022/09/29 02:46:10;;;;;;;7.70;4.35;;;;;;;4.86;100.00;99758.06;4989648;28;20048;-75
2022/09/29 02:49:01;;;;;;;6.15;5.20;;;;;;;4.84;100.00;99765.13;4975146;28;20495;-76
2022/09/29 02:51:35;;;;;;;6.90;4.60;;;;;;;4.82;100.00;99759.31;4987764;28;20542;-76
2022/09/29 02:54:27;;;;;;;5.75;4.50;;;;;;;4.81;100.00;99755.13;4980389;28;20045;-76
2022/09/29 02:57:19;;;;;;;7.13;5.03;;;;;;;4.77;100.00;99758.13;5003939;28;20041;-75
2022/09/29 02:59:57;;;;;;;8.23;4.72;;;;;;;4.71;100.00;99762.09;5004856;28;20034;-75
2022/09/29 03:02:26;;;;;;;7.95;4.97;;;;;;;4.64;100.00;99761.81;5002916;28;20129;-75
2022/09/29 03:04:52;;;;;;;6.93;4.53;;;;;;;4.61;100.00;99771.56;5003556;28;20461;-76
2022/09/29 03:07:19;;;;;;;6.88;4.80;;;;;;;4.59;100.00;99768.34;4973339;28;20054;-75
2022/09/29 03:09:45;;;;;;;7.07;4.90;;;;;;;4.56;100.00;99772.00;4986130;28;20803;-76
2022/09/29 03:12:11;;;;;;;5.70;4.38;;;;;;;4.55;100.00;99767.00;4997364;28;20045;-75
2022/09/29 03:14:36;;;;;;;5.40;4.03;;;;;;;4.55;100.00;99761.88;4988491;28;20068;-75
2022/09/29 03:17:02;;;;;;;6.10;4.35;;;;;;;4.54;100.00;99762.81;4988772;28;20407;-75
2022/09/29 03:19:28;;;;;;;4.60;3.80;;;;;;;4.52;100.00;99762.16;5002025;28;20108;-75
2022/09/29 03:21:53;;;;;;;5.13;4.00;;;;;;;4.49;100.00;99768.38;4969602;28;20038;-75
2022/09/29 03:24:18;;;;;;;4.47;3.75;;;;;;;4.45;100.00;99765.28;4988226;28;20038;-76
2022/09/29 03:26:44;;;;;;;5.10;3.70;;;;;;;4.41;100.00;99760.59;4987069;28;20076;-75
2022/09/29 03:29:09;;;;;;;4.95;4.10;;;;;;;4.38;100.00;99766.00;5006662;28;20049;-76
2022/09/29 03:31:35;;;;;;;7.15;4.15;;;;;;;4.37;100.00;99765.19;5002753;28;20030;-76
2022/09/29 03:34:00;;;;;;;4.10;3.28;;;;;;;4.38;100.00;99764.22;4983891;28;20038;-76
2022/09/29 03:36:26;;;;;;;6.47;3.97;;;;;;;4.38;100.00;99766.81;4967748;28;20030;-75
2022/09/29 03:38:51;;;;;;;5.15;4.05;;;;;;;4.40;100.00;99759.75;4987625;28;20395;-76
2022/09/29 03:41:17;;;;;;;4.90;3.95;;;;;;;4.41;100.00;99761.41;4986117;28;20112;-75
2022/09/29 03:43:42;;;;;;;6.72;4.18;;;;;;;4.42;100.00;99763.00;5003095;28;20037;-76
2022/09/29 03:46:08;;;;;;;5.32;3.95;;;;;;;4.41;100.00;99763.16;4984790;28;20033;-75
2022/09/29 03:48:34;;;;;;;6.18;4.63;;;;;;;4.38;100.00;99761.66;5003552;28;20061;-76
2022/09/29 03:51:00;;;;;;;5.00;4.13;;;;;;;4.34;100.00;99760.34;4967637;28;20091;-75
2022/09/29 03:53:26;;;;;;;7.35;4.70;;;;;;;4.32;100.00;99769.94;5003414;28;20026;-76
2022/09/29 03:55:51;;;;;;;5.75;4.40;;;;;;;4.28;100.00;99766.84;5008626;28;20086;-76
2022/09/29 03:58:17;;;;;;;5.43;4.00;;;;;;;4.29;100.00;99768.47;4968569;28;20045;-76
2022/09/29 04:00:43;;;;;;;6.57;4.57;;;;;;;4.27;100.00;99778.03;4985617;28;20041;-75
2022/09/29 04:03:09;;;;;;;7.55;4.30;;;;;;;4.26;100.00;99770.50;4988398;28;20034;-75
2022/09/29 04:05:37;;;;;;;7.90;5.00;;;;;;;4.25;100.00;99768.88;4990415;28;20033;-76
2022/09/29 04:08:05;;;;;;;6.88;4.93;;;;;;;4.25;100.00;99771.44;4989906;28;20033;-75
2022/09/29 04:10:35;;;;;;;6.68;5.28;;;;;;;4.23;100.00;99778.47;4985108;28;20088;-75
2022/09/29 04:13:01;;;;;;;9.15;6.25;;;;;;;4.15;100.00;99779.16;4988755;28;20054;-75
2022/09/29 04:15:26;;;;;;;7.82;5.22;;;;;;;4.12;100.00;99783.78;5003171;28;20041;-75
2022/09/29 04:17:52;;;;;;;6.65;4.95;;;;;;;4.09;100.00;99783.09;5005655;28;20041;-76
2022/09/29 04:20:17;;;;;;;7.30;5.15;;;;;;;4.09;100.00;99787.44;4985908;28;20034;-75
2022/09/29 04:22:42;;;;;;;9.65;5.22;;;;;;;4.09;100.00;99788.22;4982967;28;20046;-75
2022/09/29 04:25:08;;;;;;;10.98;4.80;;;;;;;4.09;100.00;99792.56;5005988;28;20044;-76
2022/09/29 04:27:33;;;;;;;7.53;4.97;;;;;;;4.06;100.00;99787.69;4971219;28;20030;-75
2022/09/29 04:29:59;;;;;;;8.35;5.10;;;;;;;4.03;100.00;99793.94;4986065;28;20049;-75
2022/09/29 04:32:24;;;;;;;9.65;5.28;;;;;;;4.00;100.00;99794.19;4968536;28;20462;-75
2022/09/29 04:34:50;;;;;;;6.55;4.72;;;;;;;4.00;100.00;99799.31;4990849;28;20045;-76
2022/09/29 04:37:15;;;;;;;12.73;4.90;;;;;;;4.00;100.00;99791.63;5007171;28;20034;-75
2022/09/29 04:39:41;;;;;;;8.40;5.97;;;;;;;4.00;100.00;99798.53;4989860;28;20029;-76
2022/09/29 04:42:06;;;;;;;12.00;6.22;;;;;;;4.02;100.00;99799.19;5003708;28;20396;-75
2022/09/29 04:44:32;;;;;;;8.10;5.35;;;;;;;4.01;100.00;99803.53;4974406;28;20030;-75
2022/09/29 04:46:58;;;;;;;11.45;5.80;;;;;;;4.00;100.00;99794.19;5005135;28;20857;-75
2022/09/29 04:49:23;;;;;;;11.90;6.45;;;;;;;4.01;100.00;99805.25;5004569;28;20025;-75
2022/09/29 04:51:48;;;;;;;10.00;5.85;;;;;;;4.02;100.00;99797.44;4974639;28;20449;-76
2022/09/29 04:54:14;;;;;;;12.25;6.75;;;;;;;4.04;100.00;99810.13;4991294;28;20044;-75
2022/09/29 04:56:40;;;;;;;11.15;6.70;;;;;;;4.03;100.00;99809.31;4980338;28;20411;-75
2022/09/29 04:59:05;;;;;;;14.88;6.93;;;;;;;4.05;100.00;99810.00;4984020;28;20065;-76
2022/09/29 05:01:31;;;;;;;12.40;6.55;;;;;;;4.05;100.00;99814.28;5004292;28;20681;-75
2022/09/29 05:03:57;;;;;;;8.77;6.05;;;;;;;4.05;100.00;99814.28;5006203;28;20048;-76
2022/09/29 05:06:22;;;;;;;10.82;6.18;;;;;;;4.05;100.00;99817.69;5000766;28;20034;-76
2022/09/29 05:08:48;;;;;;;8.10;5.57;;;;;;;4.03;100.00;99817.00;4984978;28;20030;-75
2022/09/29 05:11:14;;;;;;;11.15;5.60;;;;;;;4.01;100.00;99823.22;4984694;28;20567;-75
2022/09/29 05:13:39;;;;;;;11.15;5.95;;;;;;;4.01;100.00;99815.50;4988377;28;20038;-75
2022/09/29 05:16:05;;;;;;;9.85;6.18;;;;;;;4.01;100.00;99823.22;5005489;28;20156;-76
2022/09/29 05:18:31;;;;;;;9.40;6.22;;;;;;;4.00;100.00;99824.19;4987510;28;20470;-75
2022/09/29 05:21:05;;;;;;;10.32;6.80;;;;;;;3.97;100.00;99816.75;4972522;28;20064;-75
2022/09/29 05:23:30;;;;;;;8.95;6.32;;;;;;;3.94;100.00;99829.81;5003266;28;20029;-75
2022/09/29 05:26:01;;;;;;;10.45;7.25;;;;;;;3.88;100.00;99832.00;4999027;28;20033;-75
2022/09/29 05:28:26;;;;;;;16.10;8.63;;;;;;;3.86;100.00;99836.47;5009476;28;20072;-76
2022/09/29 05:30:51;;;;;;;17.50;8.73;;;;;;;3.85;100.00;99831.47;4990856;28;20041;-75
2022/09/29 05:33:17;;;;;;;13.23;7.85;;;;;;;3.84;100.00;99830.69;4974234;28;20038;-75
2022/09/29 05:35:42;;;;;;;11.45;7.18;;;;;;;3.84;100.00;99838.38;4992752;28;20061;-76
2022/09/29 05:38:08;;;;;;;14.65;6.93;;;;;;;3.83;100.00;99836.72;4992569;28;20041;-75
2022/09/29 05:40:36;;;;;;;9.38;6.47;;;;;;;3.79;100.00;99842.28;4979021;28;20040;-75
2022/09/29 05:43:01;;;;;;;11.27;6.30;;;;;;;3.76;100.00;99843.34;4987558;28;20403;-76
2022/09/29 05:45:27;;;;;;;8.52;6.43;;;;;;;3.79;100.00;99847.41;4974756;28;20036;-76
2022/09/29 05:47:53;;;;;;;11.90;6.93;;;;;;;3.78;100.00;99850.91;5010188;28;20053;-75
2022/09/29 05:50:20;;;;;;;13.07;5.97;;;;;;;3.75;100.00;99846.88;4991072;28;20075;-75
2022/09/29 05:52:48;;;;;;;12.25;6.57;;;;;;;3.73;100.00;99856.47;4977450;28;20037;-75
2022/09/29 05:55:14;;;;;;;10.02;6.45;;;;;;;3.72;100.00;99859.94;4990562;28;20070;-76
2022/09/29 05:57:39;;;;;;;12.52;6.28;;;;;;;3.74;100.00;99865.75;4990502;28;20061;-76
2022/09/29 06:00:06;;;;;;;15.10;8.18;;;;;;;3.83;100.00;99861.59;4978191;28;20038;-76
2022/09/29 06:02:36;;;;;;;11.07;7.40;;;;;;;3.86;100.00;99866.41;5008376;28;20097;-76
2022/09/29 06:05:02;;;;;;;16.63;8.73;;;;;;;3.92;100.00;99865.91;5012004;28;20121;-76
2022/09/29 06:07:27;;;;;;;13.27;7.78;;;;;;;3.94;100.00;99864.00;4990099;28;20045;-75
2022/09/29 06:09:53;;;;;;;12.35;7.05;;;;;;;3.97;100.00;99865.47;4976958;28;20041;-75
2022/09/29 06:12:19;;;;;;;15.80;8.52;;;;;;;3.99;100.00;99864.38;4992493;28;20033;-75
2022/09/29 06:14:44;;;;;;;12.43;7.78;;;;;;;4.01;100.00;99867.66;5007393;28;20466;-76
2022/09/29 06:17:10;;;;;;;21.48;10.75;;;;;;;4.05;100.00;99861.31;5002341;28;20454;-75
2022/09/29 06:19:35;;;;;;;21.85;12.60;;;;;;;4.08;100.00;99868.72;4993334;28;20052;-75
2022/09/29 06:22:01;;;;;;;18.52;11.10;;;;;;;4.24;100.00;99867.38;4975388;28;20045;-75
2022/09/29 06:24:26;;;;;;;19.70;10.93;;;;;;;4.32;100.00;99866.66;4990578;28;20026;-75
2022/09/29 06:26:51;;;;;;;19.88;10.00;;;;;;;4.34;100.00;99873.28;4990988;28;20383;-75
2022/09/29 06:29:17;;;;;;;18.80;10.80;;;;;;;4.44;100.00;99873.25;5009391;28;20359;-75
2022/09/29 06:31:42;;;;;;;17.80;11.18;;;;;;;4.77;100.00;99871.16;4989457;28;20502;-76
2022/09/29 06:34:08;;;;;;;17.30;11.55;;;;;;;5.26;100.00;99875.09;4971494;28;20042;-75
2022/09/29 06:39:22;;;;;;;23.02;11.88;;;;;;;6.43;100.00;99871.63;4986109;28;20034;-75
2022/09/29 06:41:52;;;;;;;14.35;10.07;;;;;;;7.01;100.00;99872.72;4988217;28;20045;-75
2022/09/29 06:44:19;;;;;;;15.65;10.15;;;;;;;7.60;100.00;99866.75;5009261;28;20041;-75
2022/09/29 06:46:45;;;;;;;12.45;8.15;;;;;;;8.17;100.00;99866.78;4986905;28;20041;-75
2022/09/29 06:49:16;;;;;;;14.98;8.95;;;;;;;8.59;95.58;99875.31;4988437;28;20034;-75
2022/09/29 06:51:42;;;;;;;14.23;7.18;;;;;;;8.95;91.51;99867.13;4992662;28;20390;-75
2022/09/29 06:54:10;;;;;;;18.25;7.45;;;;;;;9.25;88.01;99864.69;4990681;28;20129;-75
2022/09/29 06:56:35;;;;;;;11.98;7.05;;;;;;;9.68;86.33;99865.09;4980288;28;20034;-74
2022/09/29 06:59:01;;;;;;;13.82;6.60;;;;;;;9.93;83.90;99871.69;4995372;28;20038;-75
2022/09/29 07:01:26;;;;;;;9.30;6.50;;;;;;;10.21;82.25;99873.75;4989815;28;20072;-75
2022/09/29 07:03:52;;;;;;;9.77;5.35;;;;;;;10.50;81.73;99878.19;4976240;28;20120;-75
2022/09/29 07:06:17;;;;;;;9.35;5.40;;;;;;;10.88;79.73;99870.31;4993221;28;20053;-75
2022/09/29 07:08:43;;;;;;;7.47;5.03;;;;;;;11.11;79.01;99874.56;5007066;28;20101;-75
2022/09/29 07:11:09;;;;;;;7.28;4.93;;;;;;;11.42;78.06;99876.94;5006462;28;20037;-75
2022/09/29 07:13:35;;;;;;;15.98;6.50;;;;;;;11.64;77.41;99884.72;5006787;28;20030;-75
2022/09/29 07:16:12;;;;;;;10.57;5.60;;;;;;;12.01;75.64;99877.69;4988289;28;20451;-75
2022/09/29 07:18:40;;;;;;;7.75;5.47;;;;;;;12.25;74.62;99886.88;4990936;28;20072;-75
2022/09/29 07:21:08;;;;;;;9.48;5.45;;;;;;;12.36;73.24;99886.38;4988483;28;20046;-75
2022/09/29 07:23:35;;;;;;;9.95;4.57;;;;;;;12.69;73.09;99890.94;4983691;28;20038;-75
2022/09/29 07:26:01;;;;;;;8.95;4.88;;;;;;;12.78;72.70;99889.00;5009172;28;20034;-75
2022/09/29 07:28:28;;;;;;;9.15;4.57;;;;;;;12.84;72.59;99886.44;5022062;28;20026;-75
2022/09/29 07:31:01;;;;;;;14.82;5.45;;;;;;;13.04;71.75;99891.72;4972317;28;20543;-75
2022/09/29 07:33:27;;;;;;;8.95;5.18;;;;;;;13.30;71.44;99886.81;5005346;28;20034;-76
2022/09/29 07:35:53;;;;;;;11.95;5.82;;;;;;;13.52;71.07;99883.09;5003657;28;20435;-76
2022/09/29 07:38:19;;;;;;;11.10;5.03;;;;;;;13.61;69.46;99881.13;4990367;28;20033;-75
2022/09/29 07:40:44;;;;;;;8.38;4.80;;;;;;;13.40;69.46;99887.28;4975983;28;20029;-75
2022/09/29 07:43:10;;;;;;;11.38;4.50;;;;;;;13.67;70.40;99892.53;4986720;28;20506;-76
2022/09/29 07:45:35;;;;;;;7.00;4.72;;;;;;;13.78;70.07;99892.75;4988958;28;20037;-75
2022/09/29 07:48:01;;;;;;;10.70;5.28;;;;;;;14.18;68.27;99894.56;5008847;28;20038;-76
2022/09/29 07:50:26;;;;;;;8.55;4.82;;;;;;;14.26;68.62;99886.56;4988907;28;20042;-76
2022/09/29 07:52:52;;;;;;;8.13;4.93;;;;;;;14.41;68.29;99894.16;5004528;28;20044;-76
2022/09/29 07:55:19;;;;;;;7.78;4.95;;;;;;;14.52;67.69;99896.16;4982561;28;20045;-75
2022/09/29 07:57:47;;;;;;;6.53;4.50;;;;;;;14.83;67.40;99899.91;5005161;28;20165;-76
2022/09/29 08:00:13;;;;;;;13.75;6.20;;;;;;;14.79;65.98;99902.13;4988123;28;20034;-76
2022/09/29 08:02:38;;;;;;;9.20;5.40;;;;;;;14.85;66.38;99900.50;5005265;28;20776;-77
2022/09/29 08:05:04;;;;;;;10.88;4.97;;;;;;;15.13;65.06;99904.63;5004813;28;20667;-76
2022/09/29 08:07:30;;;;;;;11.02;4.80;;;;;;;15.29;64.86;99903.34;5003026;28;20086;-77
2022/09/29 08:09:55;;;;;;;12.23;5.45;;;;;;;15.42;63.80;99908.50;4984166;28;20077;-77
2022/09/29 08:12:20;;;;;;;10.55;5.07;;;;;;;15.30;65.32;99910.97;4974857;28;20034;-77
2022/09/29 08:14:47;;;;;;;11.73;5.68;;;;;;;15.15;65.81;99908.63;4972505;28;20021;-77
2022/09/29 08:17:13;;;;;;;14.63;5.60;;;;;;;15.24;65.23;99913.59;4988786;28;20022;-78
2022/09/29 08:19:38;;;;;;;9.93;5.53;;;;;;;15.45;65.32;99913.31;5009372;28;20615;-77
2022/09/29 08:22:04;;;;;;;8.98;5.45;;;;;;;15.69;65.42;99911.78;4975531;28;20034;-77
2022/09/29 08:24:30;;;;;;;8.43;5.28;;;;;;;15.62;63.83;99905.78;4977824;28;20080;-79
2022/09/29 08:26:56;;;;;;;13.77;5.65;;;;;;;15.68;63.93;99912.78;4979700;28;20119;-78
2022/09/29 08:29:22;;;;;;;11.63;5.78;;;;;;;15.85;62.72;99920.94;4994927;28;20102;-75
2022/09/29 08:31:47;;;;;;;6.80;5.40;;;;;;;16.07;62.04;99920.59;5011762;28;20042;-77
2022/09/29 08:34:14;;;;;;;12.40;5.60;;;;;;;16.06;60.65;99926.81;4988398;28;20090;-77
2022/09/29 08:36:40;;;;;;;15.70;5.90;;;;;;;16.18;62.57;99922.50;5007718;28;20380;-78
2022/09/29 08:39:06;;;;;;;10.00;6.18;;;;;;;16.10;63.11;99928.00;5014183;28;20268;-77
2022/09/29 08:41:50;;;;;;;13.23;6.40;;;;;;;16.40;61.88;99929.97;4990664;28;20041;-76
2022/09/29 08:44:15;;;;;;;10.50;5.45;;;;;;;16.57;61.67;99932.81;4974191;28;20038;-78
2022/09/29 08:46:51;;;;;;;11.30;6.05;;;;;;;16.47;62.27;99938.56;4991089;28;20507;-77
2022/09/29 08:49:35;;;;;;;10.18;5.30;;;;;;;16.40;62.41;99941.22;4989397;28;20041;-77
2022/09/29 08:52:15;;;;;;;15.65;5.30;;;;;;;16.42;61.46;99933.97;4992508;28;20042;-77
2022/09/29 08:54:43;;;;;;;13.68;5.30;;;;;;;16.35;62.19;99938.47;4993726;28;20045;-77
2022/09/29 08:57:20;;;;;;;8.88;5.13;;;;;;;16.39;60.62;99938.81;5006543;28;20041;-77
2022/09/29 08:59:54;;;;;;;8.35;5.65;;;;;;;16.03;59.13;99945.53;4987185;28;20037;-77
2022/09/29 09:02:57;;;;;;;14.52;5.78;;;;;;;16.12;59.38;99945.09;4975722;28;20081;-77
2022/09/29 09:06:00;;;;;;;11.65;5.88;;;;;;;16.07;62.01;99950.16;5003352;28;20029;-78
2022/09/29 09:08:41;;;;;;;10.80;6.57;;;;;;;15.62;64.11;99949.41;4990522;28;20483;-78
2022/09/29 09:11:37;;;;;;;11.52;6.28;;;;;;;15.65;65.70;99949.78;4970285;28;20498;-77
2022/09/29 09:14:32;;;;;;;9.63;5.93;;;;;;;15.37;65.32;99952.75;4987026;28;20033;-77
2022/09/29 09:17:09;;;;;;;12.90;5.38;;;;;;;15.42;65.00;99955.53;4971119;28;20126;-77
2022/09/29 09:20:00;;;;;;;14.68;6.30;;;;;;;15.29;67.06;99952.97;4982617;28;20033;-77
2022/09/29 09:22:28;;;;;;;12.85;6.25;;;;;;;15.16;67.83;99956.44;5000917;28;20037;-77
2022/09/29 09:25:06;;;;;;;8.07;4.93;;;;;;;15.13;67.23;99955.03;4985833;28;20042;-77
2022/09/29 09:27:41;;;;;;;7.95;5.03;;;;;;;15.15;65.44;99952.22;4971053;28;20040;-80
2022/09/29 09:30:14;;;;;;;16.27;6.47;;;;;;;15.06;68.04;99956.88;4989118;28;20029;-77
2022/09/29 09:33:01;;;;;;;15.10;7.30;;;;;;;15.01;70.21;99954.06;4978846;28;20185;-78
2022/09/29 09:35:41;;;;;;;10.68;5.80;;;;;;;14.89;67.90;99958.31;4972635;28;20122;-77
2022/09/29 09:38:16;;;;;;;9.27;5.85;;;;;;;14.97;67.14;99958.09;5004121;28;20454;-77
2022/09/29 09:40:45;;;;;;;11.52;4.93;;;;;;;14.82;68.28;99954.91;5001497;28;20034;-77
2022/09/29 09:43:19;;;;;;;10.57;5.57;;;;;;;14.77;67.76;99950.31;4985833;28;20549;-78
2022/09/29 09:45:56;;;;;;;9.23;5.38;;;;;;;14.64;67.20;99948.53;4984581;28;21919;-77
2022/09/29 09:48:31;;;;;;;10.82;5.32;;;;;;;14.67;70.29;99955.16;4983155;28;20117;-78
2022/09/29 09:51:19;;;;;;;11.35;4.85;;;;;;;14.57;71.03;99955.56;4981591;28;20729;-78
2022/09/29 09:53:49;;;;;;;15.93;5.00;;;;;;;14.71;67.77;99962.38;4990332;28;20026;-77
2022/09/29 09:56:47;;;;;;;9.13;4.30;;;;;;;14.73;66.59;99959.53;4973882;28;20048;-78
2022/09/29 09:59:39;;;;;;;10.05;4.78;;;;;;;14.75;66.66;99960.16;4989087;28;20049;-77
2022/09/29 10:02:19;;;;;;;9.15;5.47;;;;;;;14.79;67.43;99954.31;4986315;28;20042;-78
2022/09/29 10:04:51;;;;;;;8.85;5.57;;;;;;;14.68;67.62;99956.75;4984666;28;20131;-78
2022/09/29 10:07:19;;;;;;;11.73;5.93;;;;;;;14.57;67.66;99958.97;4986958;28;20498;-77
2022/09/29 10:09:45;;;;;;;10.40;4.93;;;;;;;14.75;67.66;99960.16;4986292;28;20033;-78
2022/09/29 10:12:15;;;;;;;9.32;5.25;;;;;;;14.94;64.21;99956.69;4988469;28;20092;-79
2022/09/29 10:15:05;;;;;;;9.35;4.88;;;;;;;14.89;64.97;99961.72;4990731;28;20093;-77
2022/09/29 10:17:38;;;;;;;10.07;4.47;;;;;;;14.93;66.27;99956.91;5004788;28;20487;-78
2022/09/29 10:20:06;;;;;;;9.18;5.30;;;;;;;15.03;63.60;99962.50;5001448;28;20082;-76
2022/09/29 10:22:33;;;;;;;10.98;5.47;;;;;;;15.21;64.15;99961.03;4988483;28;20143;-78
2022/09/29 10:25:10;;;;;;;11.65;5.00;;;;;;;15.15;65.00;99965.28;4989085;28;20042;-78
2022/09/29 10:27:40;;;;;;;8.70;4.93;;;;;;;15.15;65.46;99965.28;5005309;28;20042;-77
2022/09/29 10:30:32;;;;;;;10.95;4.65;;;;;;;15.07;64.43;99960.28;5003400;28;20025;-79
2022/09/29 10:32:59;;;;;;;10.10;5.90;;;;;;;14.92;66.34;99970.97;4989843;28;20046;-78
2022/09/29 10:35:31;;;;;;;9.75;4.90;;;;;;;15.09;65.36;99961.69;4972352;28;20034;-77
2022/09/29 10:38:21;;;;;;;9.90;4.80;;;;;;;14.98;61.64;99973.56;4991917;28;20571;-78
2022/09/29 10:41:18;;;;;;;8.93;4.70;;;;;;;15.03;58.98;99972.13;4987570;28;20069;-79
2022/09/29 10:43:45;;;;;;;14.68;5.43;;;;;;;14.91;63.51;99971.97;4964254;28;20041;-77
2022/09/29 10:47:05;;;;;;;9.80;4.55;;;;;;;15.10;62.37;99975.53;4988493;28;20052;-77
2022/09/29 10:49:31;;;;;;;12.82;4.65;;;;;;;15.61;62.80;99971.31;4959871;28;20050;-78
2022/09/29 10:52:05;;;;;;;8.43;4.63;;;;;;;15.45;62.23;99976.00;4994538;28;20056;-78
2022/09/29 10:54:34;;;;;;;8.20;3.42;;;;;;;15.11;62.53;99975.34;4974936;28;20116;-79
2022/09/29 10:57:11;;;;;;;6.47;3.38;;;;;;;14.88;64.78;99974.97;4988069;28;20082;-79
2022/09/29 10:59:52;;;;;;;10.30;4.07;;;;;;;14.77;64.64;99976.41;4988687;28;20054;-80
2022/09/29 11:02:49;;;;;;;8.95;3.90;;;;;;;14.66;67.48;99979.66;5003779;28;20034;-79
2022/09/29 11:05:19;;;;;;;7.50;3.88;;;;;;;14.52;68.41;99978.81;4957183;28;20061;-80
2022/09/29 11:07:46;;;;;;;8.52;3.45;;;;;;;14.54;67.90;99985.44;4974593;28;20027;-79
2022/09/29 11:10:36;;;;;;;12.15;4.22;;;;;;;14.60;68.09;99986.47;4972897;28;20074;-79
2022/09/29 11:13:23;;;;;;;7.30;3.65;;;;;;;14.53;65.76;99978.59;4999690;28;20045;-78
2022/09/29 11:15:49;;;;;;;7.80;3.50;;;;;;;14.48;63.90;99985.44;4970569;28;20818;-79
2022/09/29 11:18:20;;;;;;;10.70;4.10;;;;;;;14.26;65.23;99988.25;4989526;28;20042;-79
2022/09/29 11:21:11;;;;;;;8.40;3.95;;;;;;;14.58;65.47;99988.47;4985597;28;20506;-79
2022/09/29 11:24:02;;;;;;;7.20;3.80;;;;;;;14.72;64.12;99987.44;5019006;28;20050;-79
2022/09/29 11:26:32;;;;;;;12.38;3.05;;;;;;;14.97;62.81;99986.81;5005705;28;20052;-78
2022/09/29 11:29:33;;;;;;;7.03;4.20;;;;;;;14.85;62.09;99984.03;4971734;28;20046;-78
2022/09/29 11:32:21;;;;;;;9.43;3.83;;;;;;;15.07;61.53;99994.22;4977643;28;20141;-78
2022/09/29 11:35:04;;;;;;;8.73;4.18;;;;;;;14.95;60.93;99986.22;4989333;28;20037;-78
2022/09/29 11:37:31;;;;;;;10.25;4.18;;;;;;;15.15;58.64;99991.38;5003650;28;20080;-78
2022/09/29 11:40:34;;;;;;;11.75;3.95;;;;;;;14.95;59.01;99994.84;4991606;28;20937;-78
2022/09/29 11:43:16;;;;;;;4.80;2.43;;;;;;;14.91;60.69;99991.03;4992013;28;20500;-80
2022/09/29 11:46:03;;;;;;;8.00;2.55;;;;;;;15.01;61.50;99995.03;4988089;28;20556;-79
2022/09/29 11:48:59;;;;;;;5.63;2.60;;;;;;;15.15;58.16;100004.44;4991950;28;20061;-76
2022/09/29 11:51:49;;;;;;;5.43;2.25;;;;;;;15.40;57.52;99996.72;4959682;28;20604;-77